sensor_id;sensor_type;location;lat;lon;timestamp;temperature;humidity
33994;DHT22;20673;48.980;8.138;2023-03-01T00:01:33;-0.40;99.90
33994;DHT22;20673;48.980;8.138;2023-03-01T00:03:59;-0.40;99.90
33994;DHT22;20673;48.980;8.138;2023-03-01T00:06:26;-0.40;99.90
33994;DHT22;20673;48.980;8.138;2023-03-01T00:08:52;-0.50;99.90
33994;DHT22;20673;48.980;8.138;2023-03-01T00:11:23;-0.50;99.90
33994;DHT22;20673;48.980;8.138;2023-03-01T00:13:51;-0.50;99.90
33994;DHT22;20673;48.980;8.138;2023-03-01T00:16:27;-0.50;99.90
33994;DHT22;20673;48.980;8.138;2023-03-01T00:18:53;-0.60;99.90
33994;DHT22;20673;48.980;8.138;2023-03-01T00:21:23;-0.60;99.90
33994;DHT22;20673;48.980;8.138;2023-03-01T00:23:49;-0.60;99.90
33994;DHT22;20673;48.980;8.138;2023-03-01T00:26:16;-0.60;99.90
33994;DHT22;20673;48.980;8.138;2023-03-01T00:28:44;-0.60;99.90
33994;DHT22;20673;48.980;8.138;2023-03-01T00:31:19;-0.60;99.90
33994;DHT22;20673;48.980;8.138;2023-03-01T00:33:42;-0.60;99.90
33994;DHT22;20673;48.980;8.138;2023-03-01T00:36:10;-0.70;99.90
33994;DHT22;20673;48.980;8.138;2023-03-01T00:38:38;-0.70;99.90
33994;DHT22;20673;48.980;8.138;2023-03-01T00:41:07;-0.80;99.90
33994;DHT22;20673;48.980;8.138;2023-03-01T00:43:34;-0.70;99.90
33994;DHT22;20673;48.980;8.138;2023-03-01T00:46:02;-0.70;99.90
33994;DHT22;20673;48.980;8.138;2023-03-01T00:48:34;-0.70;99.90
33994;DHT22;20673;48.980;8.138;2023-03-01T00:51:08;-0.70;99.90
33994;DHT22;20673;48.980;8.138;2023-03-01T00:53:34;-0.80;99.90
33994;DHT22;20673;48.980;8.138;2023-03-01T00:56:01;-0.70;99.90
33994;DHT22;20673;48.980;8.138;2023-03-01T00:58:28;-0.80;99.90
33994;DHT22;20673;48.980;8.138;2023-03-01T01:00:55;-0.80;99.90
33994;DHT22;20673;48.980;8.138;2023-03-01T01:03:21;-0.80;99.90
33994;DHT22;20673;48.980;8.138;2023-03-01T01:05:50;-0.80;99.90
33994;DHT22;20673;48.980;8.138;2023-03-01T01:08:16;-0.80;99.90
33994;DHT22;20673;48.980;8.138;2023-03-01T01:10:43;-0.80;99.90
33994;DHT22;20673;48.980;8.138;2023-03-01T01:13:10;-0.80;99.90
33994;DHT22;20673;48.980;8.138;2023-03-01T01:15:37;-0.80;99.90
33994;DHT22;20673;48.980;8.138;2023-03-01T01:18:03;-0.70;99.90
33994;DHT22;20673;48.980;8.138;2023-03-01T01:20:29;-0.80;99.90
33994;DHT22;20673;48.980;8.138;2023-03-01T01:22:55;-0.80;99.90
33994;DHT22;20673;48.980;8.138;2023-03-01T01:25:21;-0.80;99.90
33994;DHT22;20673;48.980;8.138;2023-03-01T01:27:49;-0.80;99.90
33994;DHT22;20673;48.980;8.138;2023-03-01T01:30:15;-0.70;99.90
33994;DHT22;20673;48.980;8.138;2023-03-01T01:32:41;-0.70;99.90
33994;DHT22;20673;48.980;8.138;2023-03-01T01:35:07;-0.70;99.90
33994;DHT22;20673;48.980;8.138;2023-03-01T01:37:33;-0.80;99.90
33994;DHT22;20673;48.980;8.138;2023-03-01T01:39:59;-0.90;99.90
33994;DHT22;20673;48.980;8.138;2023-03-01T01:42:26;-0.90;99.90
33994;DHT22;20673;48.980;8.138;2023-03-01T01:47:39;-0.90;99.90
33994;DHT22;20673;48.980;8.138;2023-03-01T01:50:08;-0.90;99.90
33994;DHT22;20673;48.980;8.138;2023-03-01T01:52:35;-0.90;99.90
33994;DHT22;20673;48.980;8.138;2023-03-01T01:55:05;-1.00;99.90
33994;DHT22;20673;48.980;8.138;2023-03-01T01:57:34;-1.00;99.90
33994;DHT22;20673;48.980;8.138;2023-03-01T02:00:11;-1.00;99.90
33994;DHT22;20673;48.980;8.138;2023-03-01T02:02:36;-1.00;99.90
33994;DHT22;20673;48.980;8.138;2023-03-01T02:05:06;-1.00;99.90
33994;DHT22;20673;48.980;8.138;2023-03-01T02:07:38;-1.00;99.90
33994;DHT22;20673;48.980;8.138;2023-03-01T02:10:05;-1.00;99.90
33994;DHT22;20673;48.980;8.138;2023-03-01T02:12:32;-1.10;99.90
33994;DHT22;20673;48.980;8.138;2023-03-01T02:14:59;-1.10;99.90
33994;DHT22;20673;48.980;8.138;2023-03-01T02:17:25;-1.10;99.90
33994;DHT22;20673;48.980;8.138;2023-03-01T02:22:30;-1.20;99.90
33994;DHT22;20673;48.980;8.138;2023-03-01T02:27:36;-1.10;99.90
33994;DHT22;20673;48.980;8.138;2023-03-01T02:30:03;-1.10;99.90
33994;DHT22;20673;48.980;8.138;2023-03-01T02:32:30;-1.20;99.90
33994;DHT22;20673;48.980;8.138;2023-03-01T02:34:56;-1.20;99.90
33994;DHT22;20673;48.980;8.138;2023-03-01T02:37:23;-1.20;99.90
33994;DHT22;20673;48.980;8.138;2023-03-01T02:39:53;-1.30;99.90
33994;DHT22;20673;48.980;8.138;2023-03-01T02:42:26;-1.30;99.90
33994;DHT22;20673;48.980;8.138;2023-03-01T02:44:53;-1.30;99.90
33994;DHT22;20673;48.980;8.138;2023-03-01T02:47:19;-1.40;99.90
33994;DHT22;20673;48.980;8.138;2023-03-01T02:49:45;-1.40;99.90
33994;DHT22;20673;48.980;8.138;2023-03-01T02:52:54;-1.40;99.90
33994;DHT22;20673;48.980;8.138;2023-03-01T02:55:03;-1.40;99.90
33994;DHT22;20673;48.980;8.138;2023-03-01T02:57:40;-1.40;99.90
33994;DHT22;20673;48.980;8.138;2023-03-01T03:00:09;-1.50;99.90
33994;DHT22;20673;48.980;8.138;2023-03-01T03:02:39;-1.50;99.90
33994;DHT22;20673;48.980;8.138;2023-03-01T03:05:09;-1.50;99.90
33994;DHT22;20673;48.980;8.138;2023-03-01T03:07:40;-1.50;99.90
33994;DHT22;20673;48.980;8.138;2023-03-01T03:10:08;-1.50;99.90
33994;DHT22;20673;48.980;8.138;2023-03-01T03:12:37;-1.50;99.90
33994;DHT22;20673;48.980;8.138;2023-03-01T03:15:04;-1.50;99.90
33994;DHT22;20673;48.980;8.138;2023-03-01T03:17:32;-1.40;99.90
33994;DHT22;20673;48.980;8.138;2023-03-01T03:19:58;-1.50;99.90
33994;DHT22;20673;48.980;8.138;2023-03-01T03:22:24;-1.50;99.90
33994;DHT22;20673;48.980;8.138;2023-03-01T03:24:50;-1.50;99.90
33994;DHT22;20673;48.980;8.138;2023-03-01T03:27:16;-1.50;99.90
33994;DHT22;20673;48.980;8.138;2023-03-01T03:29:42;-1.50;99.90
33994;DHT22;20673;48.980;8.138;2023-03-01T03:32:08;-1.60;99.90
33994;DHT22;20673;48.980;8.138;2023-03-01T03:34:34;-1.60;99.90
33994;DHT22;20673;48.980;8.138;2023-03-01T03:36:59;-1.60;99.90
33994;DHT22;20673;48.980;8.138;2023-03-01T03:39:26;-1.60;99.90
33994;DHT22;20673;48.980;8.138;2023-03-01T03:41:53;-1.60;99.90
33994;DHT22;20673;48.980;8.138;2023-03-01T03:44:19;-1.60;99.90
33994;DHT22;20673;48.980;8.138;2023-03-01T03:46:46;-1.70;99.90
33994;DHT22;20673;48.980;8.138;2023-03-01T03:49:12;-1.70;99.90
33994;DHT22;20673;48.980;8.138;2023-03-01T03:51:37;-1.60;99.90
33994;DHT22;20673;48.980;8.138;2023-03-01T03:54:03;-1.70;99.90
33994;DHT22;20673;48.980;8.138;2023-03-01T03:56:29;-1.70;99.90
33994;DHT22;20673;48.980;8.138;2023-03-01T03:58:55;-1.70;99.90
33994;DHT22;20673;48.980;8.138;2023-03-01T04:01:21;-1.70;99.90
33994;DHT22;20673;48.980;8.138;2023-03-01T04:03:47;-1.70;99.90
33994;DHT22;20673;48.980;8.138;2023-03-01T04:06:13;-1.70;99.90
33994;DHT22;20673;48.980;8.138;2023-03-01T04:08:40;-1.70;99.90
33994;DHT22;20673;48.980;8.138;2023-03-01T04:11:06;-1.70;99.90
33994;DHT22;20673;48.980;8.138;2023-03-01T04:13:51;-1.80;99.90
33994;DHT22;20673;48.980;8.138;2023-03-01T04:16:18;-1.70;99.90
33994;DHT22;20673;48.980;8.138;2023-03-01T04:18:45;-1.80;99.90
33994;DHT22;20673;48.980;8.138;2023-03-01T04:21:11;-1.80;99.90
33994;DHT22;20673;48.980;8.138;2023-03-01T04:23:37;-1.80;99.90
33994;DHT22;20673;48.980;8.138;2023-03-01T04:26:04;-1.80;99.90
33994;DHT22;20673;48.980;8.138;2023-03-01T04:28:31;-1.90;99.90
33994;DHT22;20673;48.980;8.138;2023-03-01T04:31:02;-1.90;99.90
33994;DHT22;20673;48.980;8.138;2023-03-01T04:33:34;-1.80;99.90
33994;DHT22;20673;48.980;8.138;2023-03-01T04:36:00;-1.90;99.90
33994;DHT22;20673;48.980;8.138;2023-03-01T04:38:28;-1.90;99.90
33994;DHT22;20673;48.980;8.138;2023-03-01T04:40:54;-1.90;99.90
33994;DHT22;20673;48.980;8.138;2023-03-01T04:43:20;-1.90;99.90
33994;DHT22;20673;48.980;8.138;2023-03-01T04:45:45;-1.90;99.90
33994;DHT22;20673;48.980;8.138;2023-03-01T04:48:11;-1.90;99.90
33994;DHT22;20673;48.980;8.138;2023-03-01T04:50:37;-2.00;99.90
33994;DHT22;20673;48.980;8.138;2023-03-01T04:53:03;-2.00;99.90
33994;DHT22;20673;48.980;8.138;2023-03-01T04:55:29;-2.00;99.90
33994;DHT22;20673;48.980;8.138;2023-03-01T04:57:55;-2.00;99.90
33994;DHT22;20673;48.980;8.138;2023-03-01T05:00:21;-2.00;99.90
33994;DHT22;20673;48.980;8.138;2023-03-01T05:02:49;-2.00;99.90
33994;DHT22;20673;48.980;8.138;2023-03-01T05:05:19;-2.00;99.90
33994;DHT22;20673;48.980;8.138;2023-03-01T05:07:51;-1.90;99.90
33994;DHT22;20673;48.980;8.138;2023-03-01T05:10:18;-2.10;99.90
33994;DHT22;20673;48.980;8.138;2023-03-01T05:12:44;-2.00;99.90
33994;DHT22;20673;48.980;8.138;2023-03-01T05:15:12;-2.10;99.90
33994;DHT22;20673;48.980;8.138;2023-03-01T05:17:38;-2.10;99.90
33994;DHT22;20673;48.980;8.138;2023-03-01T05:20:04;-2.10;99.90
33994;DHT22;20673;48.980;8.138;2023-03-01T05:22:34;-2.10;99.90
33994;DHT22;20673;48.980;8.138;2023-03-01T05:25:01;-2.00;99.90
33994;DHT22;20673;48.980;8.138;2023-03-01T05:27:28;-2.00;99.90
33994;DHT22;20673;48.980;8.138;2023-03-01T05:29:55;-2.00;99.90
33994;DHT22;20673;48.980;8.138;2023-03-01T05:32:21;-2.00;99.90
33994;DHT22;20673;48.980;8.138;2023-03-01T05:34:47;-2.00;99.90
33994;DHT22;20673;48.980;8.138;2023-03-01T05:37:14;-2.00;99.90
33994;DHT22;20673;48.980;8.138;2023-03-01T05:39:40;-2.00;99.90
33994;DHT22;20673;48.980;8.138;2023-03-01T05:42:09;-2.00;99.90
33994;DHT22;20673;48.980;8.138;2023-03-01T05:44:36;-2.00;99.90
33994;DHT22;20673;48.980;8.138;2023-03-01T05:47:02;-2.00;99.90
33994;DHT22;20673;48.980;8.138;2023-03-01T05:49:28;-2.00;99.90
33994;DHT22;20673;48.980;8.138;2023-03-01T05:51:55;-2.00;99.90
33994;DHT22;20673;48.980;8.138;2023-03-01T05:54:21;-2.10;99.90
33994;DHT22;20673;48.980;8.138;2023-03-01T05:56:47;-2.00;99.90
33994;DHT22;20673;48.980;8.138;2023-03-01T05:59:13;-2.00;99.90
33994;DHT22;20673;48.980;8.138;2023-03-01T06:01:41;-2.00;99.90
33994;DHT22;20673;48.980;8.138;2023-03-01T06:04:08;-2.00;99.90
33994;DHT22;20673;48.980;8.138;2023-03-01T06:06:34;-2.00;99.90
33994;DHT22;20673;48.980;8.138;2023-03-01T06:09:05;-2.00;99.90
33994;DHT22;20673;48.980;8.138;2023-03-01T06:11:35;-2.10;99.90
33994;DHT22;20673;48.980;8.138;2023-03-01T06:14:02;-2.10;99.90
33994;DHT22;20673;48.980;8.138;2023-03-01T06:16:29;-2.00;99.90
33994;DHT22;20673;48.980;8.138;2023-03-01T06:18:55;-2.10;99.90
33994;DHT22;20673;48.980;8.138;2023-03-01T06:21:21;-2.10;99.90
33994;DHT22;20673;48.980;8.138;2023-03-01T06:23:47;-2.10;99.90
33994;DHT22;20673;48.980;8.138;2023-03-01T06:26:12;-2.00;99.90
33994;DHT22;20673;48.980;8.138;2023-03-01T06:28:38;-2.00;99.90
33994;DHT22;20673;48.980;8.138;2023-03-01T06:31:04;-2.00;99.90
33994;DHT22;20673;48.980;8.138;2023-03-01T06:33:32;-1.90;99.90
33994;DHT22;20673;48.980;8.138;2023-03-01T06:35:58;-1.90;99.90
33994;DHT22;20673;48.980;8.138;2023-03-01T06:38:24;-1.80;99.90
33994;DHT22;20673;48.980;8.138;2023-03-01T06:40:53;-1.80;99.90
33994;DHT22;20673;48.980;8.138;2023-03-01T06:43:22;-1.80;99.90
33994;DHT22;20673;48.980;8.138;2023-03-01T06:45:49;-1.80;99.90
33994;DHT22;20673;48.980;8.138;2023-03-01T06:48:15;-1.80;99.90
33994;DHT22;20673;48.980;8.138;2023-03-01T06:50:41;-1.70;99.90
33994;DHT22;20673;48.980;8.138;2023-03-01T06:53:07;-1.70;99.90
33994;DHT22;20673;48.980;8.138;2023-03-01T06:55:33;-1.60;99.90
33994;DHT22;20673;48.980;8.138;2023-03-01T06:57:59;-1.60;99.90
33994;DHT22;20673;48.980;8.138;2023-03-01T07:00:26;-1.50;99.90
33994;DHT22;20673;48.980;8.138;2023-03-01T07:02:54;-1.40;99.90
33994;DHT22;20673;48.980;8.138;2023-03-01T07:05:20;-1.40;99.90
33994;DHT22;20673;48.980;8.138;2023-03-01T07:07:46;-1.40;99.90
33994;DHT22;20673;48.980;8.138;2023-03-01T07:10:12;-1.30;99.90
33994;DHT22;20673;48.980;8.138;2023-03-01T07:12:38;-1.30;99.90
33994;DHT22;20673;48.980;8.138;2023-03-01T07:15:04;-1.20;99.90
33994;DHT22;20673;48.980;8.138;2023-03-01T07:17:31;-1.10;99.90
33994;DHT22;20673;48.980;8.138;2023-03-01T07:19:57;-1.00;99.90
33994;DHT22;20673;48.980;8.138;2023-03-01T07:22:23;-1.00;99.90
33994;DHT22;20673;48.980;8.138;2023-03-01T07:24:48;-0.80;99.90
33994;DHT22;20673;48.980;8.138;2023-03-01T07:27:14;-0.70;99.90
33994;DHT22;20673;48.980;8.138;2023-03-01T07:29:40;-0.60;99.90
33994;DHT22;20673;48.980;8.138;2023-03-01T07:32:06;-0.50;99.90
33994;DHT22;20673;48.980;8.138;2023-03-01T07:34:32;-0.40;99.90
33994;DHT22;20673;48.980;8.138;2023-03-01T07:36:58;-0.30;99.90
33994;DHT22;20673;48.980;8.138;2023-03-01T07:39:24;-0.20;99.90
33994;DHT22;20673;48.980;8.138;2023-03-01T07:41:51;0.00;99.90
33994;DHT22;20673;48.980;8.138;2023-03-01T07:44:17;0.10;99.90
33994;DHT22;20673;48.980;8.138;2023-03-01T07:46:43;0.20;99.90
33994;DHT22;20673;48.980;8.138;2023-03-01T07:49:09;0.30;99.90
33994;DHT22;20673;48.980;8.138;2023-03-01T07:51:35;0.40;99.90
33994;DHT22;20673;48.980;8.138;2023-03-01T07:54:02;0.50;99.90
33994;DHT22;20673;48.980;8.138;2023-03-01T07:56:28;0.60;99.90
33994;DHT22;20673;48.980;8.138;2023-03-01T07:58:54;0.70;99.90
33994;DHT22;20673;48.980;8.138;2023-03-01T08:01:20;0.80;99.90
33994;DHT22;20673;48.980;8.138;2023-03-01T08:03:47;0.90;99.90
33994;DHT22;20673;48.980;8.138;2023-03-01T08:06:14;1.00;99.90
33994;DHT22;20673;48.980;8.138;2023-03-01T08:08:41;1.20;99.90
33994;DHT22;20673;48.980;8.138;2023-03-01T08:11:09;1.30;99.90
33994;DHT22;20673;48.980;8.138;2023-03-01T08:13:36;1.40;99.90
33994;DHT22;20673;48.980;8.138;2023-03-01T08:16:03;1.50;99.90
33994;DHT22;20673;48.980;8.138;2023-03-01T08:18:30;1.60;99.90
33994;DHT22;20673;48.980;8.138;2023-03-01T08:21:00;1.70;99.90
33994;DHT22;20673;48.980;8.138;2023-03-01T08:23:28;1.80;99.90
33994;DHT22;20673;48.980;8.138;2023-03-01T08:25:55;1.90;99.90
33994;DHT22;20673;48.980;8.138;2023-03-01T08:28:24;2.20;99.90
33994;DHT22;20673;48.980;8.138;2023-03-01T08:30:50;2.30;99.90
33994;DHT22;20673;48.980;8.138;2023-03-01T08:33:16;2.50;99.90
33994;DHT22;20673;48.980;8.138;2023-03-01T08:35:42;2.50;99.90
33994;DHT22;20673;48.980;8.138;2023-03-01T08:38:08;2.50;99.90
33994;DHT22;20673;48.980;8.138;2023-03-01T08:40:34;2.60;99.90
33994;DHT22;20673;48.980;8.138;2023-03-01T08:43:00;2.60;99.90
33994;DHT22;20673;48.980;8.138;2023-03-01T08:45:25;2.70;99.90
33994;DHT22;20673;48.980;8.138;2023-03-01T08:47:52;2.70;99.90
33994;DHT22;20673;48.980;8.138;2023-03-01T08:50:18;2.90;99.90
33994;DHT22;20673;48.980;8.138;2023-03-01T08:52:44;3.10;99.90
33994;DHT22;20673;48.980;8.138;2023-03-01T08:55:10;3.30;99.90
33994;DHT22;20673;48.980;8.138;2023-03-01T08:57:36;3.50;99.90
33994;DHT22;20673;48.980;8.138;2023-03-01T09:00:02;3.60;99.90
33994;DHT22;20673;48.980;8.138;2023-03-01T09:02:30;3.60;99.90
33994;DHT22;20673;48.980;8.138;2023-03-01T09:04:56;3.60;99.90
33994;DHT22;20673;48.980;8.138;2023-03-01T09:07:22;3.80;99.90
33994;DHT22;20673;48.980;8.138;2023-03-01T09:09:50;3.70;99.90
33994;DHT22;20673;48.980;8.138;2023-03-01T09:12:18;3.90;99.90
33994;DHT22;20673;48.980;8.138;2023-03-01T09:14:43;4.00;99.90
33994;DHT22;20673;48.980;8.138;2023-03-01T09:17:09;4.10;99.90
33994;DHT22;20673;48.980;8.138;2023-03-01T09:19:35;4.40;99.90
33994;DHT22;20673;48.980;8.138;2023-03-01T09:22:02;4.50;99.90
33994;DHT22;20673;48.980;8.138;2023-03-01T09:24:29;4.80;99.90
33994;DHT22;20673;48.980;8.138;2023-03-01T09:26:55;5.10;99.90
33994;DHT22;20673;48.980;8.138;2023-03-01T09:29:22;5.00;99.90
33994;DHT22;20673;48.980;8.138;2023-03-01T09:31:48;5.10;99.90
33994;DHT22;20673;48.980;8.138;2023-03-01T09:34:14;5.20;99.90
33994;DHT22;20673;48.980;8.138;2023-03-01T09:36:42;5.30;99.90
33994;DHT22;20673;48.980;8.138;2023-03-01T09:39:08;5.50;99.90
33994;DHT22;20673;48.980;8.138;2023-03-01T09:41:50;5.60;99.90
33994;DHT22;20673;48.980;8.138;2023-03-01T09:44:29;5.70;99.90
33994;DHT22;20673;48.980;8.138;2023-03-01T09:47:09;5.80;99.90
33994;DHT22;20673;48.980;8.138;2023-03-01T09:49:36;6.00;99.90
33994;DHT22;20673;48.980;8.138;2023-03-01T09:54:53;6.60;99.90
33994;DHT22;20673;48.980;8.138;2023-03-01T09:57:33;7.00;99.90
33994;DHT22;20673;48.980;8.138;2023-03-01T10:02:41;7.50;99.90
33994;DHT22;20673;48.980;8.138;2023-03-01T10:07:50;7.90;99.90
33994;DHT22;20673;48.980;8.138;2023-03-01T10:10:26;8.20;99.90
33994;DHT22;20673;48.980;8.138;2023-03-01T10:12:56;8.00;99.90
33994;DHT22;20673;48.980;8.138;2023-03-01T10:15:34;8.40;99.90
33994;DHT22;20673;48.980;8.138;2023-03-01T10:18:06;8.20;99.90
33994;DHT22;20673;48.980;8.138;2023-03-01T10:23:12;8.10;99.90
33994;DHT22;20673;48.980;8.138;2023-03-01T10:25:47;8.40;99.90
33994;DHT22;20673;48.980;8.138;2023-03-01T10:28:31;8.80;99.90
33994;DHT22;20673;48.980;8.138;2023-03-01T10:31:13;9.20;99.90
33994;DHT22;20673;48.980;8.138;2023-03-01T10:33:42;9.60;99.90
33994;DHT22;20673;48.980;8.138;2023-03-01T10:36:08;9.20;99.90
33994;DHT22;20673;48.980;8.138;2023-03-01T10:38:51;8.90;99.90
33994;DHT22;20673;48.980;8.138;2023-03-01T10:41:17;9.20;99.90
33994;DHT22;20673;48.980;8.138;2023-03-01T10:43:45;9.70;99.90
33994;DHT22;20673;48.980;8.138;2023-03-01T10:46:27;9.80;99.90
33994;DHT22;20673;48.980;8.138;2023-03-01T10:49:22;10.00;99.90
33994;DHT22;20673;48.980;8.138;2023-03-01T10:51:33;9.90;99.90
33994;DHT22;20673;48.980;8.138;2023-03-01T10:53:59;10.30;99.90
33994;DHT22;20673;48.980;8.138;2023-03-01T10:56:27;10.60;99.90
33994;DHT22;20673;48.980;8.138;2023-03-01T10:59:00;10.50;99.90
33994;DHT22;20673;48.980;8.138;2023-03-01T11:01:29;10.20;99.90
33994;DHT22;20673;48.980;8.138;2023-03-01T11:06:38;10.80;99.90
33994;DHT22;20673;48.980;8.138;2023-03-01T11:11:53;10.30;99.90
33994;DHT22;20673;48.980;8.138;2023-03-01T11:14:22;10.30;99.90
33994;DHT22;20673;48.980;8.138;2023-03-01T11:17:05;10.70;99.90
33994;DHT22;20673;48.980;8.138;2023-03-01T11:19:39;11.00;99.90
33994;DHT22;20673;48.980;8.138;2023-03-01T11:22:16;11.40;99.90
33994;DHT22;20673;48.980;8.138;2023-03-01T11:24:52;11.00;99.90
33994;DHT22;20673;48.980;8.138;2023-03-01T11:29:55;11.20;99.90
33994;DHT22;20673;48.980;8.138;2023-03-01T11:35:13;11.40;99.90
33994;DHT22;20673;48.980;8.138;2023-03-01T11:37:41;11.20;99.90
33994;DHT22;20673;48.980;8.138;2023-03-01T11:40:33;11.40;99.90
33994;DHT22;20673;48.980;8.138;2023-03-01T11:43:12;11.30;99.90
33994;DHT22;20673;48.980;8.138;2023-03-01T11:50:56;11.70;99.90
33994;DHT22;20673;48.980;8.138;2023-03-01T11:53:36;11.50;99.90
33994;DHT22;20673;48.980;8.138;2023-03-01T11:56:22;11.50;99.90
33994;DHT22;20673;48.980;8.138;2023-03-01T11:59:01;11.20;99.90
33994;DHT22;20673;48.980;8.138;2023-03-01T12:09:57;11.80;99.90
33994;DHT22;20673;48.980;8.138;2023-03-01T12:12:47;11.70;99.90
33994;DHT22;20673;48.980;8.138;2023-03-01T12:26:23;11.70;99.90
33994;DHT22;20673;48.980;8.138;2023-03-01T12:39:47;11.50;99.90
33994;DHT22;20673;48.980;8.138;2023-03-01T12:42:30;11.70;99.90
33994;DHT22;20673;48.980;8.138;2023-03-01T12:47:51;11.70;99.90
33994;DHT22;20673;48.980;8.138;2023-03-01T12:50:43;11.60;99.90
33994;DHT22;20673;48.980;8.138;2023-03-01T12:53:20;11.90;99.90
33994;DHT22;20673;48.980;8.138;2023-03-01T12:55:53;11.70;99.90
33994;DHT22;20673;48.980;8.138;2023-03-01T12:58:29;11.70;99.90
33994;DHT22;20673;48.980;8.138;2023-03-01T13:01:03;11.50;99.90
33994;DHT22;20673;48.980;8.138;2023-03-01T13:03:55;11.40;99.90
33994;DHT22;20673;48.980;8.138;2023-03-01T13:06:38;11.60;99.90
33994;DHT22;20673;48.980;8.138;2023-03-01T13:11:59;11.90;99.90
33994;DHT22;20673;48.980;8.138;2023-03-01T13:16:58;11.70;99.90
33994;DHT22;20673;48.980;8.138;2023-03-01T13:19:25;11.70;99.90
33994;DHT22;20673;48.980;8.138;2023-03-01T13:21:54;11.60;99.90
33994;DHT22;20673;48.980;8.138;2023-03-01T13:24:33;11.50;99.90
33994;DHT22;20673;48.980;8.138;2023-03-01T13:32:24;11.20;99.90
33994;DHT22;20673;48.980;8.138;2023-03-01T13:34:58;11.10;99.90
33994;DHT22;20673;48.980;8.138;2023-03-01T13:37:26;11.30;99.90
33994;DHT22;20673;48.980;8.138;2023-03-01T13:39:55;11.60;99.90
33994;DHT22;20673;48.980;8.138;2023-03-01T13:42:34;12.00;99.90
33994;DHT22;20673;48.980;8.138;2023-03-01T13:45:32;12.20;99.90
33994;DHT22;20673;48.980;8.138;2023-03-01T13:47:46;12.40;99.90
33994;DHT22;20673;48.980;8.138;2023-03-01T13:50:18;12.50;99.90
33994;DHT22;20673;48.980;8.138;2023-03-01T13:52:48;12.20;99.90
33994;DHT22;20673;48.980;8.138;2023-03-01T13:57:54;12.00;99.90
33994;DHT22;20673;48.980;8.138;2023-03-01T14:03:17;12.00;99.90
33994;DHT22;20673;48.980;8.138;2023-03-01T14:06:02;12.00;99.90
33994;DHT22;20673;48.980;8.138;2023-03-01T14:08:43;11.90;99.90
33994;DHT22;20673;48.980;8.138;2023-03-01T14:14:23;12.10;99.90
33994;DHT22;20673;48.980;8.138;2023-03-01T14:17:08;12.10;99.90
33994;DHT22;20673;48.980;8.138;2023-03-01T14:19:43;11.60;99.90
33994;DHT22;20673;48.980;8.138;2023-03-01T14:22:27;11.60;99.90
33994;DHT22;20673;48.980;8.138;2023-03-01T14:24:56;11.60;99.90
33994;DHT22;20673;48.980;8.138;2023-03-01T14:27:35;11.30;99.90
33994;DHT22;20673;48.980;8.138;2023-03-01T14:30:11;11.40;99.90
33994;DHT22;20673;48.980;8.138;2023-03-01T14:32:40;11.40;99.90
33994;DHT22;20673;48.980;8.138;2023-03-01T14:35:23;11.50;99.90
33994;DHT22;20673;48.980;8.138;2023-03-01T14:37:48;11.20;99.90
33994;DHT22;20673;48.980;8.138;2023-03-01T14:40:22;11.40;99.90
33994;DHT22;20673;48.980;8.138;2023-03-01T14:42:50;11.50;99.90
33994;DHT22;20673;48.980;8.138;2023-03-01T14:45:17;11.70;99.90
33994;DHT22;20673;48.980;8.138;2023-03-01T14:47:44;11.50;99.90
33994;DHT22;20673;48.980;8.138;2023-03-01T14:50:24;11.30;99.90
33994;DHT22;20673;48.980;8.138;2023-03-01T14:52:52;11.60;99.90
33994;DHT22;20673;48.980;8.138;2023-03-01T14:57:53;12.10;99.90
33994;DHT22;20673;48.980;8.138;2023-03-01T15:00:21;12.30;99.90
33994;DHT22;20673;48.980;8.138;2023-03-01T15:02:53;12.40;99.90
33994;DHT22;20673;48.980;8.138;2023-03-01T15:05:25;12.10;99.90
33994;DHT22;20673;48.980;8.138;2023-03-01T15:07:58;11.60;99.90
33994;DHT22;20673;48.980;8.138;2023-03-01T15:10:34;11.70;99.90
33994;DHT22;20673;48.980;8.138;2023-03-01T15:13:19;11.60;99.90
33994;DHT22;20673;48.980;8.138;2023-03-01T15:15:49;11.70;99.90
33994;DHT22;20673;48.980;8.138;2023-03-01T15:18:18;12.00;99.90
33994;DHT22;20673;48.980;8.138;2023-03-01T15:20:47;12.00;99.90
33994;DHT22;20673;48.980;8.138;2023-03-01T15:23:22;12.00;99.90
33994;DHT22;20673;48.980;8.138;2023-03-01T15:25:52;11.90;99.90
33994;DHT22;20673;48.980;8.138;2023-03-01T15:28:24;12.00;99.90
33994;DHT22;20673;48.980;8.138;2023-03-01T15:31:00;12.10;99.90
33994;DHT22;20673;48.980;8.138;2023-03-01T15:35:58;11.50;99.90
33994;DHT22;20673;48.980;8.138;2023-03-01T15:40:59;11.50;99.90
33994;DHT22;20673;48.980;8.138;2023-03-01T15:43:41;11.10;99.90
33994;DHT22;20673;48.980;8.138;2023-03-01T15:46:19;11.20;99.90
33994;DHT22;20673;48.980;8.138;2023-03-01T15:48:49;11.00;99.90
33994;DHT22;20673;48.980;8.138;2023-03-01T15:51:19;10.90;99.90
33994;DHT22;20673;48.980;8.138;2023-03-01T15:53:49;10.80;99.90
33994;DHT22;20673;48.980;8.138;2023-03-01T15:56:17;10.90;99.90
33994;DHT22;20673;48.980;8.138;2023-03-01T15:58:43;10.80;99.90
33994;DHT22;20673;48.980;8.138;2023-03-01T16:01:18;10.60;99.90
33994;DHT22;20673;48.980;8.138;2023-03-01T16:03:44;10.20;99.90
33994;DHT22;20673;48.980;8.138;2023-03-01T16:06:10;9.60;99.90
33994;DHT22;20673;48.980;8.138;2023-03-01T16:08:37;9.20;99.90
33994;DHT22;20673;48.980;8.138;2023-03-01T16:11:04;9.00;99.90
33994;DHT22;20673;48.980;8.138;2023-03-01T16:13:32;8.70;99.90
33994;DHT22;20673;48.980;8.138;2023-03-01T16:15:58;8.60;99.90
33994;DHT22;20673;48.980;8.138;2023-03-01T16:18:24;8.40;99.90
33994;DHT22;20673;48.980;8.138;2023-03-01T16:20:50;8.30;99.90
33994;DHT22;20673;48.980;8.138;2023-03-01T16:23:16;8.20;99.90
33994;DHT22;20673;48.980;8.138;2023-03-01T16:25:42;8.00;99.90
33994;DHT22;20673;48.980;8.138;2023-03-01T16:28:08;7.90;99.90
33994;DHT22;20673;48.980;8.138;2023-03-01T16:30:35;7.90;99.90
33994;DHT22;20673;48.980;8.138;2023-03-01T16:33:03;7.80;99.90
33994;DHT22;20673;48.980;8.138;2023-03-01T16:35:31;7.70;99.90
33994;DHT22;20673;48.980;8.138;2023-03-01T16:37:57;7.70;99.90
33994;DHT22;20673;48.980;8.138;2023-03-01T16:40:26;7.60;99.90
33994;DHT22;20673;48.980;8.138;2023-03-01T16:42:54;7.60;99.90
33994;DHT22;20673;48.980;8.138;2023-03-01T16:45:23;7.40;99.90
33994;DHT22;20673;48.980;8.138;2023-03-01T16:47:49;7.40;99.90
33994;DHT22;20673;48.980;8.138;2023-03-01T16:50:15;7.40;99.90
33994;DHT22;20673;48.980;8.138;2023-03-01T16:52:41;7.30;99.90
33994;DHT22;20673;48.980;8.138;2023-03-01T16:55:07;7.20;99.90
33994;DHT22;20673;48.980;8.138;2023-03-01T16:57:35;7.20;99.90
33994;DHT22;20673;48.980;8.138;2023-03-01T17:00:08;7.10;99.90
33994;DHT22;20673;48.980;8.138;2023-03-01T17:02:36;7.00;99.90
33994;DHT22;20673;48.980;8.138;2023-03-01T17:05:02;6.90;99.90
33994;DHT22;20673;48.980;8.138;2023-03-01T17:07:33;6.80;99.90
33994;DHT22;20673;48.980;8.138;2023-03-01T17:10:01;6.80;99.90
33994;DHT22;20673;48.980;8.138;2023-03-01T17:12:28;6.80;99.90
33994;DHT22;20673;48.980;8.138;2023-03-01T17:14:54;6.80;99.90
33994;DHT22;20673;48.980;8.138;2023-03-01T17:17:20;6.70;99.90
33994;DHT22;20673;48.980;8.138;2023-03-01T17:19:47;6.70;99.90
33994;DHT22;20673;48.980;8.138;2023-03-01T17:22:13;6.60;99.90